首页
METAR-TAF:

METAR-TAF

机场 :

Nipawin, 薩斯喀徹溫, 加拿大

纬度: 53-20N, 经度: 104-00W, 海拔: 372米

当前天气观测

该预报发布于25小时和18分钟前的21:23 UTC
风速23节,风向西,有时为34节阵风
温度 20°C
湿度 60%
气压 999 hPa
能見度: 14.5公里
多云层高于6600英尺
多云层高于9200英尺
多云层高于11000英尺
小雨

METAR: CYBU 242123Z AUTO 27023G34KT 9SM -RA BKN066 BKN092 BKN110 20/12 A2950 RMK SLP994 DENSITY ALT 2600FT

时间: 16:41 (22:41 UTC)


TAF: 丢失

超过4000个机场的气象观测和天气预报(METAR&TAF报告)。

可查询的气象台以黄色和红色小点在地图上表示。

将鼠标移到小点上方,可查看气象台名称。

然后点击查看天气观测和预报。

如需切换地图:点击带黑十字的绿色按钮放大地图;点击带横线的绿色按钮缩小地图;或者点击绿色箭头查看邻近地区的地图。


METAR-TAF: